Time;durP1;ratioP1;P1;durP2;ratioP2;P2;SDS_P1;SDS_P2;PMS_P1;PMS_P2;Temp;Humidity;BMP_temperature;BMP_pressure;BME280_temperature;BME280_humidity;BME280_pressure;Samples;Min_cycle;Max_cycle;Signal;HPM_P1;HPM_P2
2022/11/23 00:02:38;;;;;;;5.83;2.43;;;;;;;10.55;55.07;97440.06;7065402;28;20201;-88
2022/11/23 00:06:02;;;;;;;5.87;2.40;;;;;;;10.01;55.37;97404.63;7064624;28;20377;-88
2022/11/23 00:09:24;;;;;;;8.23;3.37;;;;;;;10.11;55.85;97432.59;7065489;28;20204;-88
2022/11/23 00:12:46;;;;;;;5.30;2.50;;;;;;;10.22;55.46;97439.06;7064642;28;20296;-87
2022/11/23 00:16:08;;;;;;;5.27;2.30;;;;;;;10.26;55.40;97434.81;7064705;28;20261;-88
2022/11/23 00:19:30;;;;;;;5.57;2.77;;;;;;;9.68;56.06;97399.03;7064327;28;20231;-88
2022/11/23 00:22:51;;;;;;;6.90;2.67;;;;;;;9.75;55.81;97410.47;7063044;28;20253;-88
2022/11/23 00:26:15;;;;;;;5.53;2.47;;;;;;;9.73;56.68;97448.38;7061537;28;20315;-88
2022/11/23 00:29:37;;;;;;;5.57;2.87;;;;;;;10.63;54.78;97447.75;7062396;28;20303;-88
2022/11/23 00:32:58;;;;;;;5.83;2.77;;;;;;;10.57;54.64;97445.22;7062224;28;20643;-88
2022/11/23 00:36:21;;;;;;;4.97;2.23;;;;;;;10.02;56.03;97425.94;7061199;28;20250;-88
2022/11/23 00:39:43;;;;;;;5.93;3.13;;;;;;;10.34;54.91;97445.25;7041020;28;20261;-88
2022/11/23 00:43:05;;;;;;;4.80;3.60;;;;;;;10.17;54.32;97369.72;7034047;28;20235;-88
2022/11/23 00:46:27;;;;;;;3.87;2.57;;;;;;;10.36;54.25;97408.94;7033460;28;20255;-88
2022/11/23 00:49:49;;;;;;;4.63;2.40;;;;;;;10.59;54.25;97443.09;7034380;28;20339;-88
2022/11/23 00:53:10;;;;;;;4.67;2.40;;;;;;;9.54;56.37;97397.59;7040467;28;20315;-88
2022/11/23 00:56:33;;;;;;;4.47;2.30;;;;;;;10.64;54.05;97438.59;7061186;28;20310;-88
2022/11/23 00:59:56;;;;;;;4.43;2.37;;;;;;;10.15;55.07;97451.84;7061485;28;20245;-88
2022/11/23 01:03:18;;;;;;;2.90;2.50;;;;;;;10.41;54.19;97440.56;7061103;28;20232;-88
2022/11/23 01:06:40;;;;;;;5.40;2.43;;;;;;;10.35;54.57;97446.88;7060480;28;20315;-88
2022/11/23 01:10:01;;;;;;;5.97;2.60;;;;;;;9.46;56.70;97428.31;7039128;28;20235;-88
2022/11/23 01:13:23;;;;;;;5.90;2.40;;;;;;;10.56;54.71;97448.97;7041993;28;20699;-88
2022/11/23 01:16:46;;;;;;;5.00;2.93;;;;;;;10.80;53.91;97432.47;7060708;28;20226;-88
2022/11/23 01:20:09;;;;;;;5.30;2.50;;;;;;;11.26;52.40;97443.06;7061584;28;20337;-87
2022/11/23 01:23:31;;;;;;;3.07;2.40;;;;;;;11.33;52.19;97448.34;7051629;28;20296;-88
2022/11/23 01:26:53;;;;;;;6.00;2.50;;;;;;;10.61;53.41;97428.31;7031710;28;20267;-88
2022/11/23 01:30:15;;;;;;;5.73;2.70;;;;;;;11.49;51.97;97450.22;7031723;28;20231;-88
2022/11/23 01:33:38;;;;;;;4.10;2.30;;;;;;;10.48;54.51;97466.31;7031669;28;20273;-89
2022/11/23 01:36:59;;;;;;;9.40;3.13;;;;;;;11.48;52.05;97464.78;7031150;28;20700;-88
2022/11/23 01:40:21;;;;;;;4.10;2.60;;;;;;;10.87;53.90;97460.09;7031737;28;20240;-88
2022/11/23 01:43:43;;;;;;;6.70;2.90;;;;;;;10.38;54.70;97444.53;7031641;28;20236;-88
2022/11/23 01:47:06;;;;;;;6.87;2.90;;;;;;;11.00;53.03;97446.38;7031028;28;20260;-88
2022/11/23 01:50:29;;;;;;;7.17;2.47;;;;;;;11.13;52.77;97469.53;7030908;28;20244;-88
2022/11/23 01:53:54;;;;;;;4.03;2.60;;;;;;;11.30;52.13;97465.00;7030582;28;20271;-88
2022/11/23 01:57:18;;;;;;;6.00;3.37;;;;;;;11.39;51.58;97469.75;7029284;28;20288;-88
2022/11/23 02:00:39;;;;;;;6.27;2.90;;;;;;;11.53;50.77;97460.31;7030797;28;20286;-88
2022/11/23 02:04:01;;;;;;;3.67;2.40;;;;;;;11.25;51.22;97429.81;7030494;28;20201;-88
2022/11/23 02:07:25;;;;;;;7.63;3.23;;;;;;;11.27;51.65;97460.91;7029666;28;20262;-89
2022/11/23 02:10:47;;;;;;;4.23;2.67;;;;;;;11.44;51.20;97469.00;7029892;28;20225;-88
2022/11/23 02:14:09;;;;;;;3.73;2.70;;;;;;;11.13;51.36;97481.13;7030188;28;20315;-88
2022/11/23 02:17:30;;;;;;;3.77;2.60;;;;;;;11.37;51.41;97471.06;7029298;28;20311;-88
2022/11/23 02:20:53;;;;;;;5.30;3.00;;;;;;;11.32;51.16;97489.84;7030076;28;20287;-88
2022/11/23 02:24:22;;;;;;;4.43;2.87;;;;;;;11.50;50.94;97479.66;7029715;28;20284;-88
2022/11/23 02:27:45;;;;;;;3.17;2.87;;;;;;;11.44;51.37;97490.59;6991623;28;1076320;-88
2022/11/23 02:31:07;;;;;;;5.47;2.67;;;;;;;10.92;52.74;97462.91;7031211;28;20997;-88
2022/11/23 02:34:28;;;;;;;3.27;2.80;;;;;;;10.68;52.99;97452.47;7030962;28;21025;-88
2022/11/23 02:37:50;;;;;;;3.73;2.83;;;;;;;10.73;53.98;97479.50;7033590;28;20227;-88
2022/11/23 02:41:12;;;;;;;8.03;3.13;;;;;;;10.77;53.75;97491.44;7058657;28;20204;-88
2022/11/23 02:44:40;;;;;;;7.77;3.00;;;;;;;10.41;54.15;97470.19;7041037;28;20357;-88
2022/11/23 02:48:01;;;;;;;5.13;3.07;;;;;;;10.24;55.33;97496.19;7029562;28;20258;-88
2022/11/23 02:51:23;;;;;;;3.77;3.13;;;;;;;10.18;55.02;97483.66;7029857;28;20239;-89
2022/11/23 02:54:44;;;;;;;4.83;3.20;;;;;;;9.93;54.79;97397.69;7030373;28;20316;-89
2022/11/23 02:58:07;;;;;;;7.60;3.20;;;;;;;10.59;54.58;97499.69;7030166;28;20232;-88
2022/11/23 03:01:29;;;;;;;4.03;2.80;;;;;;;10.74;54.48;97494.63;7030573;28;20273;-88
2022/11/23 03:04:51;;;;;;;4.00;2.67;;;;;;;10.93;53.17;97494.19;7030430;28;20237;-88
2022/11/23 03:08:13;;;;;;;3.50;2.77;;;;;;;10.77;52.09;97472.56;7029657;28;20256;-88
2022/11/23 03:11:34;;;;;;;5.47;2.43;;;;;;;10.84;52.45;97501.03;7030566;28;20212;-88
2022/11/23 03:14:56;;;;;;;9.90;3.43;;;;;;;10.85;52.39;97485.66;7029926;28;20228;-88
2022/11/23 03:18:18;;;;;;;5.37;3.13;;;;;;;10.64;53.18;97483.63;7029738;28;20255;-88
2022/11/23 03:21:40;;;;;;;3.10;2.63;;;;;;;10.62;52.16;97461.50;7029977;28;20669;-88
2022/11/23 03:25:01;;;;;;;5.53;2.73;;;;;;;10.34;52.29;97446.06;7053568;28;20287;-88
2022/11/23 03:28:23;;;;;;;5.57;3.03;;;;;;;10.44;53.40;97485.88;7063298;28;20301;-87
2022/11/23 03:31:45;;;;;;;4.10;2.83;;;;;;;10.44;53.45;97496.63;7063988;28;20287;-88
2022/11/23 03:35:08;;;;;;;5.30;3.17;;;;;;;9.98;54.93;97494.75;7063180;28;20259;-89
2022/11/23 03:38:30;;;;;;;4.53;2.83;;;;;;;10.31;53.45;97478.88;7062838;28;20314;-88
2022/11/23 03:41:51;;;;;;;5.43;3.17;;;;;;;9.88;54.85;97474.84;7063672;28;20245;-88
2022/11/23 03:45:13;;;;;;;5.53;3.30;;;;;;;9.62;55.84;97494.94;7062881;28;20733;-88
2022/11/23 03:48:34;;;;;;;5.90;3.30;;;;;;;8.75;58.25;97493.91;7063398;28;20311;-89
2022/11/23 03:51:57;;;;;;;4.17;2.80;;;;;;;8.60;59.16;97514.94;7062631;28;20289;-88
2022/11/23 03:55:19;;;;;;;3.70;2.87;;;;;;;8.74;58.60;97507.53;7039270;28;20366;-88
2022/11/23 03:58:40;;;;;;;7.00;3.00;;;;;;;9.28;58.30;97492.16;7034811;28;20819;-88
2022/11/23 04:02:02;;;;;;;6.07;3.30;;;;;;;9.63;56.39;97487.69;7034912;28;20242;-88
2022/11/23 04:05:23;;;;;;;5.17;3.10;;;;;;;9.87;56.15;97479.41;7034968;28;20234;-88
2022/11/23 04:08:46;;;;;;;4.40;3.60;;;;;;;10.03;55.73;97489.53;7035565;28;20256;-88
2022/11/23 04:12:09;;;;;;;6.43;3.37;;;;;;;10.21;54.58;97475.13;7034865;28;20662;-88
2022/11/23 04:15:30;;;;;;;5.30;4.20;;;;;;;10.03;54.49;97451.00;7034790;28;20516;-88
2022/11/23 04:18:52;;;;;;;4.33;3.23;;;;;;;9.42;55.96;97470.22;7036083;28;20768;-88
2022/11/23 04:22:13;;;;;;;5.80;3.10;;;;;;;9.19;56.79;97451.31;7036582;28;20238;-88
2022/11/23 04:25:36;;;;;;;4.23;3.57;;;;;;;9.56;56.85;97468.94;7062814;28;20345;-90
2022/11/23 04:28:58;;;;;;;3.53;3.10;;;;;;;9.80;55.76;97477.88;7066033;28;20221;-87
2022/11/23 04:32:19;;;;;;;10.80;2.93;;;;;;;9.83;56.10;97485.50;7066179;28;20349;-88
2022/11/23 04:35:41;;;;;;;6.77;3.40;;;;;;;9.30;55.70;97394.06;7065082;28;20711;-88
2022/11/23 04:39:03;;;;;;;3.93;2.77;;;;;;;9.64;55.48;97484.75;7053621;28;20705;-88
2022/11/23 04:42:25;;;;;;;3.27;2.83;;;;;;;9.80;55.96;97476.00;7036591;28;20205;-88
2022/11/23 04:45:48;;;;;;;5.33;3.10;;;;;;;9.66;56.10;97469.22;7064701;28;20216;-85
2022/11/23 04:49:09;;;;;;;7.30;3.17;;;;;;;9.65;56.36;97462.19;7072132;28;20586;-85
2022/11/23 04:52:31;;;;;;;6.50;3.47;;;;;;;9.71;56.52;97479.28;7072792;28;20201;-85
2022/11/23 04:55:53;;;;;;;6.80;4.43;;;;;;;8.67;59.71;97480.75;7045144;28;20234;-86
2022/11/23 04:59:18;;;;;;;6.37;3.53;;;;;;;9.58;57.68;97464.16;7045335;28;20204;-85
2022/11/23 05:07:09;;;;;;;4.80;3.53;;;;;;;9.69;57.27;97463.34;7052745;28;20223;-86
2022/11/23 05:10:31;;;;;;;5.50;3.30;;;;;;;9.02;57.21;97391.19;7067830;28;20211;-87
2022/11/23 05:13:53;;;;;;;5.20;3.30;;;;;;;9.67;57.31;97464.63;7077720;28;20239;-87
2022/11/23 05:17:16;;;;;;;5.33;3.37;;;;;;;9.75;57.29;97470.50;7065628;28;20227;-86
2022/11/23 05:20:39;;;;;;;4.17;3.50;;;;;;;9.19;56.09;97354.53;7046028;28;20205;-86
2022/11/23 05:24:00;;;;;;;7.13;3.33;;;;;;;9.55;55.40;97386.59;7060879;28;20214;-86
2022/11/23 05:27:22;;;;;;;4.43;3.10;;;;;;;10.00;55.32;97441.50;7072300;28;20228;-86
2022/11/23 05:30:44;;;;;;;6.47;3.67;;;;;;;10.16;55.31;97461.53;7073736;28;20222;-85
2022/11/23 05:34:08;;;;;;;5.23;3.10;;;;;;;10.11;55.29;97456.84;7072485;28;20223;-85
2022/11/23 05:37:33;;;;;;;5.53;3.63;;;;;;;10.00;55.35;97456.81;7068871;28;20225;-86
2022/11/23 05:40:55;;;;;;;8.43;4.87;;;;;;;9.65;55.95;97453.28;7069389;28;20209;-85
2022/11/23 05:44:17;;;;;;;8.00;4.40;;;;;;;9.83;55.71;97427.09;7065309;28;20200;-84
2022/11/23 05:47:38;;;;;;;8.80;3.97;;;;;;;9.38;57.11;97355.22;7049092;28;20224;-87
2022/11/23 05:51:01;;;;;;;6.93;3.27;;;;;;;10.22;56.02;97444.44;7058845;28;20645;-83
2022/11/23 05:54:22;;;;;;;3.93;3.17;;;;;;;10.15;54.43;97443.75;7047200;28;20323;-82
2022/11/23 05:57:44;;;;;;;5.17;2.97;;;;;;;9.85;54.71;97443.81;7050232;28;20302;-82
2022/11/23 06:01:08;;;;;;;6.53;3.20;;;;;;;9.83;54.75;97431.66;7068120;28;20223;-81
2022/11/23 06:04:30;;;;;;;7.93;4.17;;;;;;;9.59;54.69;97459.59;7059816;28;20200;-81
2022/11/23 06:07:54;;;;;;;10.17;4.20;;;;;;;9.16;56.12;97449.06;7065950;28;20219;-84
2022/11/23 06:11:15;;;;;;;7.83;4.00;;;;;;;9.26;56.45;97443.13;7065837;28;20206;-84
2022/11/23 06:14:37;;;;;;;5.23;3.53;;;;;;;8.98;56.44;97382.97;7066861;28;20540;-84
2022/11/23 06:18:02;;;;;;;6.13;3.63;;;;;;;8.68;57.60;97404.50;7067225;28;20261;-84
2022/11/23 06:21:23;;;;;;;7.23;3.83;;;;;;;8.85;57.65;97435.03;7066876;28;20207;-82
2022/11/23 06:24:46;;;;;;;8.20;4.20;;;;;;;9.01;57.78;97455.91;7053411;28;20230;-88
2022/11/23 06:28:12;;;;;;;5.30;4.23;;;;;;;8.68;57.29;97454.72;7065291;28;20261;-85
2022/11/23 06:31:36;;;;;;;11.37;4.80;;;;;;;8.91;57.86;97455.63;7071274;28;20204;-85
2022/11/23 06:35:04;;;;;;;7.03;3.80;;;;;;;8.40;57.37;97390.81;7071675;28;20219;-84
2022/11/23 06:38:27;;;;;;;5.57;3.80;;;;;;;8.18;57.11;97394.97;7070228;28;20563;-85
2022/11/23 06:41:50;;;;;;;8.13;4.73;;;;;;;8.64;56.52;97459.72;7059212;28;20202;-84
2022/11/23 06:45:15;;;;;;;7.87;4.10;;;;;;;7.82;58.54;97426.31;7040397;28;20206;-85
2022/11/23 06:48:37;;;;;;;5.07;4.07;;;;;;;8.29;57.89;97450.63;7039215;28;20235;-85
2022/11/23 06:51:58;;;;;;;7.97;3.63;;;;;;;8.17;56.95;97438.13;7038269;28;20238;-85
2022/11/23 06:55:20;;;;;;;6.43;3.57;;;;;;;8.37;57.99;97476.38;7037998;28;20233;-84
2022/11/23 06:58:44;;;;;;;6.07;3.57;;;;;;;8.27;57.51;97447.34;7038731;28;20230;-84
2022/11/23 07:02:06;;;;;;;6.73;4.03;;;;;;;7.82;57.89;97415.56;7039856;28;20203;-85
2022/11/23 07:05:28;;;;;;;5.10;3.70;;;;;;;8.31;57.86;97488.81;7039148;28;20230;-84
2022/11/23 07:08:53;;;;;;;6.60;3.60;;;;;;;8.33;58.05;97491.28;7064082;28;20227;-85
2022/11/23 07:12:15;;;;;;;10.57;4.07;;;;;;;7.93;58.49;97495.34;7054590;28;20310;-84
2022/11/23 07:15:39;;;;;;;6.77;4.87;;;;;;;7.92;58.34;97494.53;7039411;28;20567;-85
2022/11/23 07:19:01;;;;;;;5.27;4.50;;;;;;;8.24;58.37;97501.47;7038459;28;20213;-86
2022/11/23 07:22:23;;;;;;;4.87;4.30;;;;;;;8.43;57.53;97488.91;7039710;28;20217;-87
2022/11/23 07:26:24;;;;;;;8.73;4.43;;;;;;;8.24;57.66;97500.69;7037890;28;20299;-85
2022/11/23 07:29:49;;;;;;;7.43;5.20;;;;;;;8.07;57.82;97472.72;7038530;28;20584;-85
2022/11/23 07:33:20;;;;;;;10.67;4.87;;;;;;;7.86;58.65;97508.00;7038611;28;20198;-85
2022/11/23 07:36:42;;;;;;;8.90;4.60;;;;;;;7.12;60.22;97440.91;7040739;28;20271;-85
2022/11/23 07:40:05;;;;;;;7.33;4.00;;;;;;;7.50;59.99;97481.06;7040070;28;20272;-86
2022/11/23 07:43:26;;;;;;;8.77;4.40;;;;;;;7.73;59.67;97482.09;7034899;28;20203;-87
2022/11/23 07:46:48;;;;;;;6.53;4.80;;;;;;;7.81;59.14;97455.00;7033927;28;20234;-87
2022/11/23 07:50:13;;;;;;;6.37;4.53;;;;;;;8.32;58.75;97511.91;7036134;28;20203;-87
2022/11/23 07:53:35;;;;;;;7.43;4.97;;;;;;;8.11;58.78;97465.84;7043596;28;20287;-86
2022/11/23 07:57:21;;;;;;;12.20;5.27;;;;;;;8.82;57.96;97518.81;7032160;28;20238;-86
2022/11/23 08:00:43;;;;;;;9.20;5.90;;;;;;;9.00;57.35;97518.78;7013580;28;20667;-86
2022/11/23 08:04:05;;;;;;;7.10;4.00;;;;;;;9.14;57.26;97499.56;7030979;28;20289;-81
2022/11/23 08:07:28;;;;;;;6.47;3.67;;;;;;;9.47;56.06;97515.25;7044628;28;20234;-80
2022/11/23 08:10:50;;;;;;;8.60;4.63;;;;;;;9.58;55.68;97512.56;7048283;28;20207;-81
2022/11/23 08:14:12;;;;;;;5.07;3.90;;;;;;;9.66;56.23;97492.59;7036253;28;20637;-80
2022/11/23 08:17:34;;;;;;;5.37;3.90;;;;;;;9.65;54.79;97477.50;7059134;28;20298;-80
2022/11/23 08:20:59;;;;;;;5.30;3.87;;;;;;;10.49;55.65;97505.66;7064132;28;20232;-78
2022/11/23 08:24:22;;;;;;;5.93;4.13;;;;;;;13.64;47.18;97493.81;7063668;28;20228;-78
2022/11/23 08:27:44;;;;;;;12.00;5.30;;;;;;;15.49;42.74;97492.31;7064918;28;20228;-79
2022/11/23 08:31:07;;;;;;;7.93;4.93;;;;;;;16.24;38.96;97497.84;7063432;28;20204;-79
2022/11/23 08:34:28;;;;;;;7.40;3.80;;;;;;;16.22;39.14;97498.13;7065228;28;20356;-79
2022/11/23 08:37:50;;;;;;;9.07;4.47;;;;;;;16.28;38.72;97493.50;7061363;28;20707;-78
2022/11/23 08:41:13;;;;;;;8.93;3.30;;;;;;;16.39;38.87;97497.88;7062606;28;20303;-79
2022/11/23 08:44:34;;;;;;;5.57;2.87;;;;;;;15.33;41.10;97499.59;7044009;28;20232;-79
2022/11/23 08:47:59;;;;;;;5.83;2.83;;;;;;;14.47;41.41;97492.09;7046427;28;20692;-80
2022/11/23 08:51:22;;;;;;;5.87;2.47;;;;;;;13.95;42.12;97472.16;7033262;28;20226;-80
2022/11/23 08:54:43;;;;;;;4.13;2.37;;;;;;;13.46;43.98;97476.03;7032783;28;20232;-80
2022/11/23 08:58:07;;;;;;;6.00;2.67;;;;;;;13.02;44.98;97492.56;7038059;28;20252;-80
2022/11/23 09:01:28;;;;;;;8.47;2.80;;;;;;;13.31;45.56;97502.13;7033889;28;20212;-80
2022/11/23 09:04:50;;;;;;;5.93;2.80;;;;;;;13.60;44.54;97495.38;7033648;28;20684;-81
2022/11/23 09:08:12;;;;;;;3.80;2.70;;;;;;;13.65;44.73;97498.16;7035172;28;20232;-80
2022/11/23 09:11:33;;;;;;;3.43;3.00;;;;;;;13.49;44.28;97508.00;7031255;28;20236;-80
2022/11/23 09:14:56;;;;;;;4.93;2.60;;;;;;;13.00;45.80;97506.38;7032402;28;20260;-80
2022/11/23 09:18:18;;;;;;;4.70;2.97;;;;;;;13.58;44.51;97481.28;7031981;28;20259;-81
2022/11/23 09:21:41;;;;;;;3.93;2.90;;;;;;;13.69;44.87;97502.00;7036693;28;20617;-81
2022/11/23 09:25:03;;;;;;;2.80;2.37;;;;;;;13.97;44.36;97483.56;7060285;28;20208;-83
2022/11/23 09:28:26;;;;;;;5.40;2.67;;;;;;;14.28;42.96;97493.56;7060695;28;20441;-83
2022/11/23 09:31:49;;;;;;;5.07;2.47;;;;;;;14.18;43.28;97490.78;7058663;28;20228;-83
2022/11/23 09:35:11;;;;;;;5.83;2.43;;;;;;;14.45;42.26;97491.53;7031607;28;20243;-84
2022/11/23 09:38:32;;;;;;;3.90;2.63;;;;;;;14.30;43.20;97499.56;7053392;28;20262;-83
2022/11/23 09:42:09;;;;;;;6.33;2.50;;;;;;;14.27;43.06;97480.31;7052427;28;20210;-83
2022/11/23 09:45:35;;;;;;;7.13;2.53;;;;;;;14.94;42.18;97470.38;7032420;28;20243;-83
2022/11/23 09:49:09;;;;;;;6.60;2.77;;;;;;;14.76;41.32;97463.50;7032662;28;20523;-83
2022/11/23 09:52:31;;;;;;;5.33;2.53;;;;;;;14.93;42.00;97487.75;7035732;28;20970;-82
2022/11/23 09:55:56;;;;;;;3.97;2.80;;;;;;;14.46;42.26;97484.22;7032772;28;20317;-82
2022/11/23 09:59:25;;;;;;;4.20;2.60;;;;;;;14.96;41.77;97473.63;7031689;28;20273;-84
2022/11/23 10:02:47;;;;;;;7.00;2.33;;;;;;;15.18;40.68;97457.97;7032166;28;20217;-83
2022/11/23 10:06:17;;;;;;;3.10;2.23;;;;;;;15.29;40.53;97476.75;7030948;28;20311;-87
2022/11/23 10:09:48;;;;;;;6.97;3.00;;;;;;;15.62;39.59;97478.25;7041577;28;20213;-85
2022/11/23 10:13:26;;;;;;;5.00;2.37;;;;;;;15.34;39.46;97457.78;7043309;28;20227;-83
2022/11/23 10:16:52;;;;;;;2.47;2.23;;;;;;;16.05;38.81;97453.25;7058166;28;20255;-83
2022/11/23 10:20:21;;;;;;;4.97;2.87;;;;;;;15.66;38.70;97442.09;7053431;28;20253;-83
2022/11/23 10:23:53;;;;;;;5.50;2.43;;;;;;;16.03;38.06;97452.69;7059375;28;20222;-83
2022/11/23 10:27:17;;;;;;;5.83;2.70;;;;;;;16.26;37.65;97442.09;7058294;28;20223;-82
2022/11/23 10:30:39;;;;;;;3.83;2.10;;;;;;;15.93;37.36;97425.53;7060948;28;20236;-83
2022/11/23 10:34:08;;;;;;;2.87;2.10;;;;;;;15.42;37.84;97451.03;7059564;28;20278;-83
2022/11/23 10:37:29;;;;;;;3.83;2.17;;;;;;;15.38;37.83;97448.03;7035708;28;20255;-83
2022/11/23 10:40:59;;;;;;;6.33;2.20;;;;;;;16.08;37.17;97437.22;7031797;28;20349;-83
2022/11/23 10:44:30;;;;;;;2.47;2.00;;;;;;;16.23;36.45;97448.06;7030755;28;20207;-83
2022/11/23 10:47:54;;;;;;;2.67;1.90;;;;;;;16.40;36.25;97453.25;7053539;28;20218;-80
2022/11/23 10:51:16;;;;;;;5.00;2.70;;;;;;;16.57;36.89;97451.84;7032654;28;20246;-81
2022/11/23 10:54:40;;;;;;;5.40;3.57;;;;;;;16.35;37.73;97435.00;7049820;28;20566;-83
2022/11/23 10:58:03;;;;;;;7.97;3.60;;;;;;;16.47;38.65;97442.91;7046395;28;20221;-83
2022/11/23 11:01:26;;;;;;;3.80;2.30;;;;;;;16.80;36.83;97443.09;7044330;28;20438;-80
2022/11/23 11:04:50;;;;;;;4.37;2.13;;;;;;;16.77;35.27;97443.66;7058792;28;20754;-82
2022/11/23 11:08:13;;;;;;;3.10;2.23;;;;;;;16.64;35.07;97430.59;7051154;28;20249;-80
2022/11/23 11:11:38;;;;;;;2.53;2.20;;;;;;;16.89;35.16;97436.00;7058043;28;20705;-80
2022/11/23 11:15:14;;;;;;;4.60;2.17;;;;;;;17.05;34.16;97421.19;7058802;28;20232;-80
2022/11/23 11:18:37;;;;;;;3.80;2.00;;;;;;;16.87;34.14;97429.19;7059697;28;20221;-79
2022/11/23 11:22:00;;;;;;;3.73;2.17;;;;;;;16.78;35.02;97442.56;7050966;28;20256;-80
2022/11/23 11:25:28;;;;;;;2.57;2.03;;;;;;;17.07;34.12;97421.75;7031059;28;20242;-79
2022/11/23 11:28:51;;;;;;;5.93;1.90;;;;;;;17.30;33.58;97420.25;7029714;28;20226;-79
2022/11/23 11:32:19;;;;;;;4.40;2.57;;;;;;;16.90;34.44;97437.63;7029386;28;20265;-79
2022/11/23 11:35:42;;;;;;;3.30;2.10;;;;;;;16.76;34.79;97408.53;7028966;28;20210;-79
2022/11/23 11:39:10;;;;;;;3.30;2.43;;;;;;;17.04;34.60;97395.06;7028942;28;20212;-79
2022/11/23 11:42:36;;;;;;;4.17;2.27;;;;;;;17.29;34.10;97415.91;7030124;28;20203;-77
2022/11/23 11:46:01;;;;;;;3.17;2.13;;;;;;;17.06;35.03;97383.91;7056171;28;20246;-77
2022/11/23 11:49:26;;;;;;;2.93;2.33;;;;;;;17.40;33.69;97393.78;7049452;28;20198;-77
2022/11/23 11:52:49;;;;;;;4.27;2.03;;;;;;;16.94;33.46;97399.75;7058825;28;20273;-78
2022/11/23 11:56:15;;;;;;;3.70;2.60;;;;;;;16.99;33.86;97391.56;7044794;28;20299;-78
2022/11/23 11:59:41;;;;;;;4.93;2.57;;;;;;;16.69;34.51;97406.09;7062328;28;20366;-78
2022/11/23 12:03:09;;;;;;;2.97;2.20;;;;;;;16.44;35.35;97402.63;7062770;28;20191;-78
2022/11/23 12:06:35;;;;;;;5.10;2.50;;;;;;;16.56;35.11;97395.00;7058219;28;20304;-78
2022/11/23 12:10:02;;;;;;;4.63;2.30;;;;;;;16.31;36.19;97395.84;7032956;28;20210;-78
2022/11/23 12:13:28;;;;;;;3.83;2.23;;;;;;;16.50;35.17;97349.84;7053180;28;20246;-78
2022/11/23 12:16:56;;;;;;;2.60;2.20;;;;;;;17.07;34.89;97367.28;7061688;28;20233;-78
2022/11/23 12:20:23;;;;;;;3.20;2.00;;;;;;;16.59;35.81;97381.66;7061981;28;20269;-79
2022/11/23 12:23:52;;;;;;;4.77;2.30;;;;;;;16.65;36.07;97379.72;7061844;28;20209;-78
2022/11/23 12:27:20;;;;;;;4.20;2.87;;;;;;;17.23;34.70;97362.56;7061849;28;20308;-79
2022/11/23 12:30:48;;;;;;;4.83;2.90;;;;;;;17.08;34.54;97363.47;7061685;28;20224;-79
2022/11/23 12:34:27;;;;;;;4.03;1.93;;;;;;;16.86;34.34;97356.78;7061476;28;20601;-78
2022/11/23 12:37:58;;;;;;;5.10;2.50;;;;;;;16.47;35.91;97366.75;7048345;28;20669;-78
2022/11/23 12:41:24;;;;;;;4.53;2.80;;;;;;;16.73;34.66;97366.38;7041523;28;20222;-79
2022/11/23 12:45:04;;;;;;;4.47;2.30;;;;;;;17.15;34.30;97371.34;7063799;28;20250;-79
2022/11/23 12:48:37;;;;;;;4.03;2.20;;;;;;;16.50;35.70;97372.44;7061762;28;20258;-79
2022/11/23 12:52:07;;;;;;;3.70;2.30;;;;;;;16.90;34.47;97366.00;7055434;28;20205;-78
2022/11/23 12:55:37;;;;;;;2.93;2.23;;;;;;;17.07;33.54;97358.28;7031559;28;20295;-78
2022/11/23 12:59:00;;;;;;;2.27;1.83;;;;;;;17.09;33.99;97351.47;7032669;28;20275;-78
2022/11/23 13:02:44;;;;;;;2.27;2.00;;;;;;;16.19;34.55;97346.38;7032141;28;20306;-78
2022/11/23 13:06:27;;;;;;;5.17;2.30;;;;;;;16.56;34.34;97352.28;7031630;28;20601;-78
2022/11/23 13:10:18;;;;;;;3.13;2.00;;;;;;;16.58;33.81;97325.59;7033489;28;20296;-78
2022/11/23 13:13:48;;;;;;;2.00;1.50;;;;;;;16.10;33.58;97325.47;7016274;28;20260;-77
2022/11/23 13:17:19;;;;;;;2.90;2.20;;;;;;;16.12;34.05;97343.16;7031233;28;20237;-78
2022/11/23 13:21:03;;;;;;;2.87;1.77;;;;;;;16.36;34.12;97348.78;7032264;28;20195;-78
2022/11/23 13:24:26;;;;;;;2.20;2.00;;;;;;;16.67;33.53;97328.56;7032047;28;20883;-78
2022/11/23 13:28:00;;;;;;;2.97;1.60;;;;;;;16.78;32.44;97341.03;7030464;28;20296;-78
2022/11/23 13:31:24;;;;;;;2.30;1.67;;;;;;;16.73;33.46;97339.16;7031634;28;20206;-79
2022/11/23 13:34:49;;;;;;;5.93;2.40;;;;;;;16.22;34.25;97331.44;7031177;28;20675;-79
2022/11/23 13:38:46;;;;;;;1.83;1.47;;;;;;;16.58;34.82;97331.03;7031641;28;20229;-79
2022/11/23 13:42:10;;;;;;;3.67;1.73;;;;;;;16.56;34.68;97332.41;7031043;28;20341;-79
2022/11/23 13:45:35;;;;;;;3.93;1.80;;;;;;;16.24;35.39;97327.34;7031115;28;20239;-79
2022/11/23 13:48:58;;;;;;;2.20;1.80;;;;;;;16.54;34.87;97324.53;7031657;28;20269;-79
2022/11/23 13:52:27;;;;;;;2.53;1.67;;;;;;;16.67;34.91;97306.78;7038497;28;20687;-79
2022/11/23 13:55:53;;;;;;;4.67;2.27;;;;;;;16.65;35.05;97314.44;7058943;28;20230;-79
2022/11/23 13:59:28;;;;;;;4.90;1.83;;;;;;;16.70;34.78;97298.06;7058861;28;20217;-79
2022/11/23 14:02:50;;;;;;;5.70;1.93;;;;;;;16.95;34.88;97292.47;7059690;28;20229;-79
2022/11/23 14:06:14;;;;;;;2.67;1.80;;;;;;;16.57;34.96;97283.16;7031631;28;20272;-80
2022/11/23 14:09:43;;;;;;;2.77;1.73;;;;;;;16.71;34.85;97289.63;7030463;28;20237;-81
2022/11/23 14:13:11;;;;;;;4.53;1.80;;;;;;;16.22;35.48;97287.91;7046520;28;20208;-83
2022/11/23 14:16:52;;;;;;;2.70;1.93;;;;;;;16.48;35.35;97284.84;7058362;28;20307;-79
2022/11/23 14:20:41;;;;;;;4.37;1.50;;;;;;;16.37;35.45;97285.94;7038560;28;20607;-78
2022/11/23 14:24:24;;;;;;;3.27;2.17;;;;;;;16.12;35.73;97264.31;7032363;28;20297;-79
2022/11/23 14:27:55;;;;;;;3.97;1.90;;;;;;;15.79;36.14;97280.41;7033448;28;20230;-80
2022/11/23 14:31:22;;;;;;;5.63;2.10;;;;;;;16.01;35.74;97280.91;7032354;28;20301;-80
2022/11/23 14:34:51;;;;;;;3.27;2.03;;;;;;;16.07;35.74;97269.75;7031844;28;20769;-81
2022/11/23 14:38:31;;;;;;;6.27;1.90;;;;;;;15.69;36.10;97264.94;7031851;28;20232;-80
2022/11/23 14:41:55;;;;;;;4.23;2.10;;;;;;;15.58;36.67;97252.47;7032548;28;20211;-80
2022/11/23 14:45:19;;;;;;;4.77;2.50;;;;;;;15.62;36.69;97271.78;7059407;28;20260;-80
2022/11/23 14:48:41;;;;;;;3.83;2.30;;;;;;;15.55;36.54;97261.16;7060797;28;20273;-80
2022/11/23 14:52:03;;;;;;;4.07;2.13;;;;;;;15.34;36.93;97267.69;7061511;28;20204;-79
2022/11/23 14:55:27;;;;;;;2.47;2.07;;;;;;;14.77;37.70;97245.41;7060644;28;20212;-80
2022/11/23 14:58:49;;;;;;;4.27;2.00;;;;;;;15.01;37.67;97260.06;7059867;28;20319;-79
2022/11/23 15:02:17;;;;;;;2.53;2.10;;;;;;;14.76;38.35;97272.78;7061657;28;20741;-80
2022/11/23 15:05:39;;;;;;;6.50;2.40;;;;;;;14.89;38.21;97267.66;7060588;28;20290;-80
2022/11/23 15:09:07;;;;;;;4.33;2.20;;;;;;;14.70;38.55;97255.66;7039618;28;20253;-80
2022/11/23 15:12:41;;;;;;;3.23;2.57;;;;;;;14.71;38.70;97248.34;7040696;28;20643;-80
2022/11/23 15:16:04;;;;;;;3.67;2.47;;;;;;;14.56;38.90;97251.03;7059053;28;20273;-80
2022/11/23 15:19:28;;;;;;;3.53;2.70;;;;;;;14.69;38.73;97254.03;7062947;28;20297;-80
2022/11/23 15:22:50;;;;;;;1.97;1.87;;;;;;;14.54;38.73;97220.66;7066471;28;20686;-80
2022/11/23 15:26:13;;;;;;;3.23;1.70;;;;;;;14.50;38.81;97239.38;7065149;28;20280;-81
2022/11/23 15:29:36;;;;;;;2.80;1.80;;;;;;;14.43;38.89;97252.38;7065672;28;20669;-83
2022/11/23 15:32:59;;;;;;;2.47;2.10;;;;;;;14.36;39.46;97254.53;7060865;28;20277;-83
2022/11/23 15:36:25;;;;;;;2.30;1.90;;;;;;;14.22;39.69;97247.16;7066323;28;20239;-82
2022/11/23 15:39:47;;;;;;;4.50;2.37;;;;;;;13.64;41.18;97253.59;7038026;28;20230;-82
2022/11/23 15:43:12;;;;;;;2.93;1.83;;;;;;;13.83;40.32;97254.81;7042429;28;20632;-81
2022/11/23 15:46:36;;;;;;;6.40;1.93;;;;;;;13.95;39.86;97265.41;7065721;28;20727;-82
2022/11/23 15:50:00;;;;;;;5.50;1.90;;;;;;;13.69;40.50;97252.81;7065867;28;20653;-80
2022/11/23 15:53:25;;;;;;;5.27;2.13;;;;;;;13.83;40.32;97238.56;7065055;28;20204;-82
2022/11/23 15:56:49;;;;;;;2.97;1.60;;;;;;;13.52;40.39;97249.47;7063518;28;20232;-83
2022/11/23 16:00:21;;;;;;;3.80;1.60;;;;;;;13.64;40.03;97258.22;7067036;28;20277;-78
2022/11/23 16:03:51;;;;;;;4.80;2.47;;;;;;;13.09;42.24;97247.81;7062843;28;20255;-84
2022/11/23 16:07:17;;;;;;;5.40;2.40;;;;;;;13.46;42.23;97275.69;7059442;28;20260;-79
2022/11/23 16:10:53;;;;;;;3.93;2.73;;;;;;;13.09;43.98;97274.06;7057661;28;20196;-79
2022/11/23 16:14:18;;;;;;;4.17;2.87;;;;;;;13.29;43.57;97272.31;7062857;28;20228;-81